createdAt,value
2022-08-29T00:05:01.491Z,17.32
2022-08-29T00:10:06.985Z,17.24
2022-08-29T00:15:12.304Z,17.33
2022-08-29T00:20:19.667Z,17.21
2022-08-29T00:25:24.058Z,17.08
2022-08-29T00:30:27.493Z,17.03
2022-08-29T00:35:35.429Z,16.95
2022-08-29T00:40:51.280Z,16.88
2022-08-29T00:46:06.401Z,16.87
2022-08-29T00:51:15.885Z,16.80
2022-08-29T00:56:23.383Z,16.77
2022-08-29T01:01:26.493Z,16.80
2022-08-29T01:06:30.322Z,16.74
2022-08-29T01:11:52.465Z,16.79
2022-08-29T01:16:57.652Z,16.67
2022-08-29T01:22:25.825Z,16.67
2022-08-29T01:27:34.617Z,16.60
2022-08-29T01:32:38.635Z,16.53
2022-08-29T01:37:44.133Z,16.46
2022-08-29T01:42:47.900Z,16.39
2022-08-29T01:47:52.244Z,16.28
2022-08-29T01:52:55.943Z,16.18
2022-08-29T01:57:59.362Z,16.21
2022-08-29T02:03:04.145Z,16.17
2022-08-29T02:08:08.132Z,16.11
2022-08-29T02:13:12.467Z,16.03
2022-08-29T02:18:16.313Z,15.97
2022-08-29T02:23:30.512Z,15.92
2022-08-29T02:28:36.238Z,16.01
2022-08-29T02:33:40.301Z,15.99
2022-08-29T02:38:44.421Z,15.98
2022-08-29T02:43:48.088Z,15.89
2022-08-29T02:49:00.985Z,15.81
2022-08-29T02:54:05.085Z,15.64
2022-08-29T02:59:08.674Z,15.62
2022-08-29T03:04:11.824Z,15.70
2022-08-29T03:09:15.694Z,15.81
2022-08-29T03:14:18.786Z,15.81
2022-08-29T03:19:23.080Z,15.86
2022-08-29T03:24:27.217Z,15.96
2022-08-29T03:29:30.337Z,15.84
2022-08-29T03:34:34.946Z,15.75
2022-08-29T03:39:38.505Z,15.64
2022-08-29T03:44:42.773Z,15.71
2022-08-29T03:49:46.241Z,15.77
2022-08-29T03:54:49.784Z,15.70
2022-08-29T03:59:54.168Z,15.66
2022-08-29T04:05:10.235Z,15.58
2022-08-29T04:10:17.820Z,15.53
2022-08-29T04:15:20.910Z,15.57
2022-08-29T04:20:27.516Z,15.48
2022-08-29T04:25:37.823Z,15.40
2022-08-29T04:30:51.093Z,15.30
2022-08-29T04:35:55.611Z,15.30
2022-08-29T04:40:58.727Z,15.37
2022-08-29T04:46:02.586Z,15.41
2022-08-29T04:51:06.062Z,15.47
2022-08-29T04:56:13.063Z,15.64
2022-08-29T05:01:18.835Z,15.76
2022-08-29T05:06:25.696Z,15.86
2022-08-29T05:11:30.485Z,16.04
2022-08-29T05:16:37.570Z,16.22
2022-08-29T05:21:41.306Z,16.48
2022-08-29T05:26:45.623Z,16.74
2022-08-29T05:31:50.048Z,17.08
2022-08-29T05:36:54.402Z,17.37
2022-08-29T05:41:58.072Z,17.73
2022-08-29T05:47:01.960Z,18.40
2022-08-29T05:52:06.290Z,18.77
2022-08-29T05:57:16.624Z,19.23
2022-08-29T06:02:23.970Z,19.52
2022-08-29T06:07:27.865Z,19.89
2022-08-29T06:12:30.804Z,20.43
2022-08-29T06:17:35.485Z,21.24
2022-08-29T06:22:40.598Z,25.56
2022-08-29T06:27:44.309Z,27.94
2022-08-29T06:32:47.989Z,28.97
2022-08-29T06:37:51.575Z,28.84
2022-08-29T06:42:55.162Z,29.68
2022-08-29T06:47:58.563Z,29.06
2022-08-29T06:53:25.993Z,30.48
2022-08-29T06:58:24.584Z,30.06
2022-08-29T07:03:27.846Z,29.97
2022-08-29T07:08:31.818Z,29.88
2022-08-29T07:13:35.409Z,30.20
2022-08-29T07:18:39.065Z,30.42
2022-08-29T07:23:42.952Z,30.03
2022-08-29T07:28:48.162Z,30.58
2022-08-29T07:33:54.564Z,30.15
2022-08-29T07:39:10.543Z,29.88
2022-08-29T07:44:16.206Z,30.05
2022-08-29T07:49:20.073Z,30.36
2022-08-29T07:54:23.661Z,30.35
2022-08-29T07:59:26.834Z,30.76
2022-08-29T08:04:30.567Z,30.79
2022-08-29T08:09:33.785Z,30.44
2022-08-29T08:14:37.284Z,30.64
2022-08-29T08:19:40.666Z,30.32
2022-08-29T08:24:43.718Z,30.94
2022-08-29T08:29:46.824Z,31.40
2022-08-29T08:34:53.656Z,30.50
2022-08-29T08:39:59.230Z,30.74
2022-08-29T08:45:18.767Z,30.96
2022-08-29T08:50:36.052Z,31.51
2022-08-29T08:55:52.439Z,30.44
2022-08-29T09:01:18.927Z,29.35
2022-08-29T09:06:54.325Z,28.55
2022-08-29T09:12:06.696Z,28.34
2022-08-29T09:17:36.501Z,28.45
2022-08-29T09:22:42.608Z,27.02
2022-08-29T09:27:45.650Z,26.87
2022-08-29T09:33:17.548Z,26.56
2022-08-29T09:38:25.980Z,26.38
2022-08-29T09:43:50.583Z,26.80
2022-08-29T09:49:15.151Z,26.79
2022-08-29T09:54:32.399Z,27.20
2022-08-29T09:59:39.890Z,28.24
2022-08-29T10:04:53.454Z,29.15
2022-08-29T10:10:01.637Z,28.56
2022-08-29T10:15:16.556Z,28.08
2022-08-29T10:21:11.805Z,28.75
2022-08-29T10:26:33.722Z,28.75
2022-08-29T10:31:43.447Z,27.36
2022-08-29T10:36:56.371Z,26.79
2022-08-29T10:42:03.656Z,27.20
2022-08-29T10:47:12.318Z,27.46
2022-08-29T10:52:21.749Z,29.19
2022-08-29T10:57:42.175Z,30.72
2022-08-29T11:03:07.264Z,30.98
2022-08-29T11:08:34.505Z,32.29
2022-08-29T11:14:01.217Z,32.48
2022-08-29T11:19:13.298Z,32.02
2022-08-29T11:24:19.108Z,30.81
2022-08-29T11:29:48.244Z,32.03
2022-08-29T11:35:18.253Z,30.59
2022-08-29T11:46:56.119Z,31.52
2022-08-29T11:52:08.899Z,33.05
2022-08-29T11:57:11.852Z,31.97
2022-08-29T12:02:30.865Z,29.39
2022-08-29T12:07:55.404Z,29.26
2022-08-29T12:13:03.871Z,29.17
2022-08-29T12:18:17.373Z,28.80
2022-08-29T12:23:23.868Z,27.98
2022-08-29T12:28:49.989Z,28.37
2022-08-29T12:34:17.577Z,30.24
2022-08-29T12:39:39.052Z,31.17
2022-08-29T12:44:49.657Z,31.10
2022-08-29T12:50:00.767Z,30.60
2022-08-29T12:55:28.870Z,29.57
2022-08-29T13:00:34.637Z,29.73
2022-08-29T13:05:40.996Z,30.04
2022-08-29T13:11:02.751Z,29.79
2022-08-29T13:16:09.780Z,30.71
2022-08-29T13:21:22.420Z,31.88
2022-08-29T13:26:32.717Z,30.83
2022-08-29T13:31:40.384Z,31.49
2022-08-29T13:37:03.656Z,31.88
2022-08-29T13:42:16.662Z,32.31
2022-08-29T13:47:21.690Z,32.78
2022-08-29T13:52:26.042Z,33.25
2022-08-29T13:57:35.244Z,32.31
2022-08-29T14:02:44.652Z,31.98
2022-08-29T14:07:49.024Z,32.31
2022-08-29T14:12:52.305Z,32.32
2022-08-29T14:17:56.540Z,33.11
2022-08-29T14:22:59.648Z,33.29
2022-08-29T14:28:03.027Z,33.40
2022-08-29T14:33:05.814Z,33.36
2022-08-29T14:38:12.648Z,31.72
2022-08-29T14:43:16.248Z,29.88
2022-08-29T14:48:19.638Z,28.47
2022-08-29T14:53:23.682Z,27.46
2022-08-29T14:58:27.433Z,26.75
2022-08-29T15:03:30.401Z,27.07
2022-08-29T15:08:33.694Z,26.79
2022-08-29T15:13:36.662Z,26.38
2022-08-29T15:19:31.186Z,26.19
2022-08-29T15:24:05.497Z,25.41
2022-08-29T15:29:09.606Z,25.13
2022-08-29T15:34:13.132Z,24.80
2022-08-29T15:39:16.766Z,24.52
2022-08-29T15:44:19.841Z,24.83
2022-08-29T15:49:25.312Z,25.09
2022-08-29T15:54:28.500Z,25.76
2022-08-29T15:59:56.649Z,25.70
2022-08-29T16:04:57.440Z,25.56
2022-08-29T16:10:04.886Z,24.97
2022-08-29T16:15:15.770Z,24.69
2022-08-29T16:20:19.249Z,24.79
2022-08-29T16:25:24.941Z,24.48
2022-08-29T16:30:30.222Z,24.14
2022-08-29T16:35:35.628Z,23.99
2022-08-29T16:40:39.619Z,23.66
2022-08-29T16:45:43.950Z,23.51
2022-08-29T16:50:48.643Z,23.55
2022-08-29T16:55:52.846Z,23.33
2022-08-29T17:00:57.301Z,23.28
2022-08-29T17:06:04.871Z,23.19
2022-08-29T17:11:08.346Z,22.90
2022-08-29T17:16:12.535Z,22.81
2022-08-29T17:21:17.228Z,22.81
2022-08-29T17:26:22.982Z,22.60
2022-08-29T17:31:26.837Z,22.29
2022-08-29T17:36:29.783Z,22.10
2022-08-29T17:41:33.462Z,21.90
2022-08-29T17:46:38.848Z,21.63
2022-08-29T17:51:42.782Z,21.34
2022-08-29T17:56:51.420Z,21.30
2022-08-29T18:01:55.981Z,21.12
2022-08-29T18:07:00.205Z,20.97
2022-08-29T18:12:03.763Z,20.69
2022-08-29T18:17:07.440Z,20.52
2022-08-29T18:22:10.776Z,20.28
2022-08-29T18:27:14.304Z,20.08
2022-08-29T18:32:19.425Z,19.89
2022-08-29T18:37:23.183Z,19.74
2022-08-29T18:42:40.071Z,19.59
2022-08-29T18:47:44.347Z,19.47
2022-08-29T18:52:48.742Z,19.29
2022-08-29T18:57:52.982Z,19.16
2022-08-29T19:02:57.693Z,19.20
2022-08-29T19:08:01.277Z,19.07
2022-08-29T19:13:08.445Z,19.06
2022-08-29T19:18:11.928Z,18.92
2022-08-29T19:23:16.922Z,18.87
2022-08-29T19:28:21.068Z,18.74
2022-08-29T19:33:24.508Z,18.60
2022-08-29T19:38:30.404Z,18.57
2022-08-29T19:43:35.535Z,18.51
2022-08-29T19:48:39.808Z,18.46
2022-08-29T19:53:43.277Z,18.41
2022-08-29T19:58:46.562Z,18.33
2022-08-29T20:03:54.225Z,18.40
2022-08-29T20:08:58.731Z,18.79
2022-08-29T20:14:02.476Z,18.98
2022-08-29T20:19:06.966Z,19.05
2022-08-29T20:24:15.453Z,19.00
2022-08-29T20:29:20.961Z,19.00
2022-08-29T20:34:28.724Z,19.02
2022-08-29T20:39:31.951Z,18.90
2022-08-29T20:44:38.043Z,18.88
2022-08-29T20:49:43.818Z,19.03
2022-08-29T20:54:48.750Z,19.04
2022-08-29T20:59:52.363Z,19.04
2022-08-29T21:05:14.381Z,19.10
2022-08-29T21:10:17.771Z,19.12
2022-08-29T21:15:22.166Z,18.96
2022-08-29T21:20:25.748Z,18.90
2022-08-29T21:25:29.674Z,18.92
2022-08-29T21:30:34.137Z,18.95
2022-08-29T21:35:42.203Z,18.92
2022-08-29T21:40:50.302Z,19.02
2022-08-29T21:45:54.655Z,18.84
2022-08-29T21:50:57.666Z,18.82
2022-08-29T21:56:00.654Z,18.89
2022-08-29T22:01:05.188Z,18.60
2022-08-29T22:06:11.124Z,18.78
2022-08-29T22:11:24.399Z,18.56
2022-08-29T22:16:33.763Z,18.39
2022-08-29T22:21:40.561Z,18.22
2022-08-29T22:26:44.662Z,17.91
2022-08-29T22:31:47.950Z,17.72
2022-08-29T22:36:53.481Z,17.48
2022-08-29T22:41:57.215Z,17.21
2022-08-29T22:47:00.997Z,17.04
2022-08-29T22:52:05.614Z,16.86
2022-08-29T22:57:15.700Z,16.79
2022-08-29T23:02:21.116Z,16.79
2022-08-29T23:07:24.765Z,16.72
2022-08-29T23:12:28.827Z,16.52
2022-08-29T23:17:32.813Z,16.45
2022-08-29T23:22:36.007Z,16.47
2022-08-29T23:27:39.740Z,16.49
2022-08-29T23:32:42.799Z,16.42
2022-08-29T23:37:46.481Z,16.29
2022-08-29T23:42:49.450Z,16.09
2022-08-29T23:47:53.435Z,15.89
2022-08-29T23:52:56.550Z,15.86
2022-08-29T23:57:59.922Z,15.60
